This is the latest recevied weather packets stored in our database for station/object KC3DGM. If no packets are shown the sender has not sent any weather packets the latest 10 day(s).
| Time | Temp. | Humidity | Pressure | Rain* | Wind** | Luminosity | Snow |
|---|---|---|---|---|---|---|---|
| 1778010428 | 17.78° C | 73% | 979.1 hPa | 0 mm | - | 17 W/m² | - |
| 1778010124 | 18.33° C | 72% | 979.1 hPa | 0 mm | - | 16 W/m² | - |
| 1778009820 | 18.89° C | 70% | 979.2 hPa | 0 mm | - | 14 W/m² | - |
| 1778009517 | 19.44° C | 68% | 978.9 hPa | 0 mm | - | 26 W/m² | - |
| 1778009215 | 20.56° C | 65% | 978.9 hPa | 0 mm | - | 23 W/m² | - |
| 1778008912 | 20.56° C | 65% | 978.8 hPa | 0 mm | - | 75 W/m² | - |
| 1778008611 | 20.56° C | 63% | 978.8 hPa | 0 mm | - | 107 W/m² | - |
| 1778008309 | 20.56° C | 63% | 978.9 hPa | 0 mm | - | 150 W/m² | - |
| 1778008004 | 21.11° C | 61% | 978.8 hPa | 0 mm | - | 176 W/m² | - |
| 1778007704 | 21.11° C | 62% | 978.8 hPa | 0 mm | - | 235 W/m² | - |
| 1778007401 | 21.11° C | 62% | 978.7 hPa | 0 mm | - | 210 W/m² | - |
| 1778007097 | 21.11° C | 61% | 978.7 hPa | 0 mm | - | 170 W/m² | - |
| 1778006794 | 20.56° C | 63% | 978.8 hPa | 0 mm | - | 172 W/m² | - |
| 1778006491 | 21.11° C | 61% | 978.8 hPa | 0 mm | - | 163 W/m² | - |
| 1778006188 | 21.11° C | 63% | 979.2 hPa | 0 mm | - | 193 W/m² | - |
| 1778005886 | 21.11° C | 63% | 978.8 hPa | 0 mm | - | 174 W/m² | - |
| 1778005582 | 21.11° C | 63% | 978.8 hPa | 0 mm | - | 193 W/m² | - |
| 1778005279 | 21.11° C | 65% | 978.8 hPa | 0 mm | - | 196 W/m² | - |
| 1778004975 | 21.11° C | 63% | 978.6 hPa | 0 mm | - | 205 W/m² | - |
| 1778004673 | 20.56° C | 62% | 978.8 hPa | 0 mm | - | 285 W/m² | - |
| 1778004368 | 20.56° C | 65% | 978.7 hPa | 0 mm | - | 149 W/m² | - |
| 1778004066 | 20.56° C | 64% | 978.7 hPa | 0 mm | - | 113 W/m² | - |
| 1778003762 | 20.56° C | 63% | 978.6 hPa | 0 mm | - | 113 W/m² | - |
| 1778003459 | 20.56° C | 62% | 978.8 hPa | 0 mm | - | 140 W/m² | - |
| 1778003155 | 20.56° C | 63% | 978.8 hPa | 0 mm | - | 118 W/m² | - |
* Rain latest hour (hover to see other rain measurements)
** Current wind speed in m/s (hover to see current wind gust speed)